Terminal Aerodrome Forecast
Issued by NWS North Platte, NE

Home | Current Version | Previous Version | Graphics & Text | Print | Product List | Glossary On
Versions: 1 2 3 4 5 6 7 8 9 10 11 12 13 14 15 16 17 18 19 20
188
FTUS43 KLBF 242320
TAFVTN
TAF
KVTN 242320Z 2500/2524 36009KT P6SM SCT250
     FM250300 03007KT P6SM BKN200
     FM250600 04008KT P6SM VCSH BKN120
     FM250900 02009KT P6SM -SHRA OVC008
      TEMPO 2512/2516 4SM -SHRA OVC008
     FM251800 01014G21KT P6SM OVC008
     FM252000 36015G23KT P6SM OVC010=

USA.gov is the U.S. government's official web portal to all federal, state and local government web resources and services.